createdAt,value
2024-03-02T00:01:45.871Z,43.73
2024-03-02T00:04:13.266Z,42.80
2024-03-02T00:06:43.858Z,45.43
2024-03-02T00:09:15.032Z,43.97
2024-03-02T00:11:46.115Z,44.63
2024-03-02T00:14:14.454Z,43.57
2024-03-02T00:16:42.656Z,41.90
2024-03-02T00:19:12.794Z,41.47
2024-03-02T00:21:40.390Z,39.07
2024-03-02T00:24:21.994Z,41.63
2024-03-02T00:26:51.947Z,39.07
2024-03-02T00:29:21.905Z,38.83
2024-03-02T00:31:52.502Z,38.00
2024-03-02T00:34:22.448Z,36.63
2024-03-02T00:36:51.178Z,40.80
2024-03-02T00:39:22.412Z,37.13
2024-03-02T00:41:51.687Z,35.67
2024-03-02T00:44:20.556Z,40.47
2024-03-02T00:46:47.940Z,37.07
2024-03-02T00:49:25.051Z,39.37
2024-03-02T00:51:54.581Z,41.13
2024-03-02T00:54:27.156Z,43.20
2024-03-02T00:56:59.871Z,38.57
2024-03-02T00:59:27.236Z,40.73
2024-03-02T01:01:57.985Z,35.33
2024-03-02T01:04:26.585Z,34.77
2024-03-02T01:06:53.831Z,32.80
2024-03-02T01:09:21.074Z,35.30
2024-03-02T01:11:51.707Z,32.73
2024-03-02T01:14:18.973Z,34.13
2024-03-02T01:16:49.234Z,37.33
2024-03-02T01:19:21.210Z,36.87
2024-03-02T01:21:49.517Z,37.60
2024-03-02T01:24:16.685Z,36.40
2024-03-02T01:26:47.871Z,34.93
2024-03-02T01:29:25.151Z,37.57
2024-03-02T01:31:53.278Z,33.53
2024-03-02T01:34:26.343Z,36.47
2024-03-02T01:36:54.225Z,37.50
2024-03-02T01:39:24.639Z,30.63
2024-03-02T01:41:52.125Z,27.37
2024-03-02T01:44:28.730Z,30.97
2024-03-02T01:46:59.674Z,35.83
2024-03-02T01:49:28.864Z,39.93
2024-03-02T01:52:00.698Z,42.47
2024-03-02T01:54:28.733Z,44.23
2024-03-02T01:56:55.794Z,45.33
2024-03-02T01:59:23.996Z,51.57
2024-03-02T02:01:52.860Z,48.60
2024-03-02T02:04:30.208Z,55.40
2024-03-02T02:07:01.706Z,52.63
2024-03-02T02:09:32.236Z,57.37
2024-03-02T02:12:05.119Z,63.53
2024-03-02T02:14:36.585Z,59.70
2024-03-02T02:17:03.955Z,59.07
2024-03-02T02:19:31.763Z,61.13
2024-03-02T02:22:00.383Z,60.90
2024-03-02T02:24:29.752Z,59.77
2024-03-02T02:27:00.496Z,61.83
2024-03-02T02:29:29.923Z,55.10
2024-03-02T02:31:57.026Z,54.83
2024-03-02T02:34:26.985Z,55.67
2024-03-02T02:36:58.894Z,61.60
2024-03-02T02:39:26.781Z,54.50
2024-03-02T02:42:00.065Z,53.63
2024-03-02T02:44:36.185Z,54.77
2024-03-02T02:47:07.789Z,58.30
2024-03-02T02:49:45.038Z,59.93
2024-03-02T02:52:17.300Z,56.67
2024-03-02T02:54:47.488Z,55.77
2024-03-02T02:57:17.694Z,60.03
2024-03-02T02:59:45.262Z,55.77
2024-03-02T03:02:18.284Z,53.90
2024-03-02T03:04:46.037Z,52.30
2024-03-02T03:07:15.630Z,53.83
2024-03-02T03:09:44.008Z,51.60
2024-03-02T03:12:13.407Z,56.63
2024-03-02T03:14:42.944Z,56.43
2024-03-02T03:17:12.087Z,50.27
2024-03-02T03:19:46.673Z,52.60
2024-03-02T03:22:15.949Z,53.37
2024-03-02T03:24:46.510Z,46.57
2024-03-02T03:27:14.476Z,52.20
2024-03-02T03:29:41.652Z,42.90
2024-03-02T03:32:10.877Z,39.60
2024-03-02T03:34:41.862Z,37.57
2024-03-02T03:37:11.507Z,38.80
2024-03-02T03:39:38.958Z,42.47
2024-03-02T03:42:06.809Z,42.53
2024-03-02T03:44:36.472Z,42.77
2024-03-02T03:47:06.187Z,44.53
2024-03-02T03:49:33.368Z,50.23
2024-03-02T03:52:04.016Z,46.70
2024-03-02T03:54:35.671Z,43.17
2024-03-02T03:57:03.505Z,45.37
2024-03-02T03:59:33.819Z,48.20
2024-03-02T04:02:12.237Z,46.80
2024-03-02T04:04:39.728Z,52.40
2024-03-02T04:07:07.243Z,46.70
2024-03-02T04:09:34.665Z,48.27
2024-03-02T04:12:07.596Z,48.23
2024-03-02T04:14:35.237Z,48.10
2024-03-02T04:17:02.752Z,50.67
2024-03-02T04:19:32.866Z,65.77
2024-03-02T04:22:05.593Z,97.33
2024-03-02T04:24:37.340Z,52.33
2024-03-02T04:27:07.160Z,48.93
2024-03-02T04:29:37.986Z,99.70
2024-03-02T04:32:06.126Z,100.83
2024-03-02T04:34:33.464Z,91.63
2024-03-02T04:37:04.282Z,45.37
2024-03-02T04:39:32.524Z,46.27
2024-03-02T04:42:03.510Z,48.07
2024-03-02T04:44:34.663Z,46.90
2024-03-02T04:47:02.174Z,75.27
2024-03-02T04:49:29.958Z,68.97
2024-03-02T04:52:06.079Z,65.23
2024-03-02T04:54:36.430Z,57.20
2024-03-02T04:57:04.063Z,47.27
2024-03-02T04:59:37.731Z,49.10
2024-03-02T05:02:05.054Z,61.37
2024-03-02T05:04:42.297Z,47.70
2024-03-02T05:07:11.345Z,44.57
2024-03-02T05:09:39.144Z,50.17
2024-03-02T05:12:28.617Z,53.17
2024-03-02T05:14:57.361Z,48.07
2024-03-02T05:17:24.536Z,43.07
2024-03-02T05:19:52.189Z,51.00
2024-03-02T05:22:22.553Z,45.73
2024-03-02T05:24:49.705Z,46.17
2024-03-02T05:27:17.714Z,47.20
2024-03-02T05:29:45.131Z,43.47
2024-03-02T05:32:14.495Z,44.53
2024-03-02T05:34:44.877Z,60.67
2024-03-02T05:37:13.297Z,57.67
2024-03-02T05:39:42.278Z,71.83
2024-03-02T05:42:12.695Z,54.03
2024-03-02T05:44:41.226Z,57.40
2024-03-02T05:47:11.103Z,54.13
2024-03-02T05:49:45.610Z,62.07
2024-03-02T05:52:14.679Z,73.00
2024-03-02T05:54:42.019Z,70.80
2024-03-02T05:57:24.563Z,68.83
2024-03-02T05:59:53.551Z,56.93
2024-03-02T06:02:24.050Z,53.90
2024-03-02T06:04:51.682Z,57.43
2024-03-02T06:07:25.785Z,106.57
2024-03-02T06:09:55.042Z,62.53
2024-03-02T06:12:25.404Z,82.80
2024-03-02T06:14:55.243Z,75.07
2024-03-02T06:17:22.857Z,86.47
2024-03-02T06:19:51.377Z,81.90
2024-03-02T06:22:18.642Z,65.10
2024-03-02T06:24:46.743Z,65.20
2024-03-02T06:27:16.832Z,64.03
2024-03-02T06:29:44.479Z,66.30
2024-03-02T06:32:16.216Z,60.07
2024-03-02T06:34:46.223Z,55.53
2024-03-02T06:37:14.895Z,60.37
2024-03-02T06:39:44.477Z,59.90
2024-03-02T06:42:14.706Z,56.17
2024-03-02T06:44:42.953Z,66.13
2024-03-02T06:47:10.037Z,51.77
2024-03-02T06:49:37.677Z,55.43
2024-03-02T06:52:08.205Z,60.37
2024-03-02T06:54:36.259Z,53.30
2024-03-02T06:57:04.137Z,48.77
2024-03-02T06:59:36.029Z,48.60
2024-03-02T07:02:05.582Z,49.20
2024-03-02T07:04:39.509Z,52.73
2024-03-02T07:07:07.306Z,51.37
2024-03-02T07:09:34.883Z,51.07
2024-03-02T07:12:03.006Z,49.27
2024-03-02T07:14:49.891Z,57.33
2024-03-02T07:17:20.686Z,49.17
2024-03-02T07:19:48.332Z,51.43
2024-03-02T07:22:15.030Z,47.70
2024-03-02T07:24:47.828Z,63.60
2024-03-02T07:27:18.228Z,53.07
2024-03-02T07:29:51.064Z,47.67
2024-03-02T07:32:20.919Z,47.00
2024-03-02T07:34:47.854Z,56.80
2024-03-02T07:37:14.853Z,42.60
2024-03-02T07:39:43.706Z,56.37
2024-03-02T07:42:10.818Z,45.50
2024-03-02T07:44:42.206Z,45.00
2024-03-02T07:47:10.989Z,42.67
2024-03-02T07:49:39.295Z,45.50
2024-03-02T07:52:07.465Z,46.43
2024-03-02T07:54:37.905Z,37.63
2024-03-02T07:57:05.578Z,37.83
2024-03-02T07:59:32.751Z,35.97
2024-03-02T08:02:00.721Z,33.63
2024-03-02T08:04:30.718Z,34.50
2024-03-02T08:07:00.382Z,34.07
2024-03-02T08:09:29.337Z,35.80
2024-03-02T08:12:00.271Z,35.27
2024-03-02T08:14:32.748Z,35.80
2024-03-02T08:17:03.468Z,34.97
2024-03-02T08:19:33.814Z,33.73
2024-03-02T08:22:03.601Z,33.10
2024-03-02T08:24:33.234Z,34.03
2024-03-02T08:27:01.444Z,35.47
2024-03-02T08:29:31.006Z,32.53
2024-03-02T08:32:02.389Z,33.23
2024-03-02T08:34:31.381Z,35.43
2024-03-02T08:37:02.089Z,36.07
2024-03-02T08:39:31.537Z,35.67
2024-03-02T08:42:01.407Z,34.03
2024-03-02T08:44:28.704Z,31.40
2024-03-02T08:46:55.984Z,31.80
2024-03-02T08:49:22.797Z,31.00
2024-03-02T08:51:56.559Z,33.20
2024-03-02T08:54:24.445Z,33.30
2024-03-02T08:56:53.231Z,32.97
2024-03-02T08:59:22.796Z,32.70
2024-03-02T09:01:58.162Z,32.73
2024-03-02T09:04:27.479Z,31.37
2024-03-02T09:06:56.108Z,31.37
2024-03-02T09:09:23.268Z,29.63
2024-03-02T09:11:50.765Z,29.77
2024-03-02T09:14:18.559Z,32.73
2024-03-02T09:16:45.820Z,39.30
2024-03-02T09:19:14.664Z,31.37
2024-03-02T09:21:46.070Z,29.60
2024-03-02T09:24:17.694Z,31.43
2024-03-02T09:26:46.242Z,31.50
2024-03-02T09:29:19.024Z,30.80
2024-03-02T09:31:47.859Z,30.60
2024-03-02T09:34:16.245Z,31.70
2024-03-02T09:36:45.386Z,31.10
2024-03-02T09:39:16.236Z,31.67
2024-03-02T09:41:43.147Z,33.10
2024-03-02T09:44:11.905Z,31.03
2024-03-02T09:46:39.078Z,30.60
2024-03-02T09:49:06.674Z,31.93
2024-03-02T09:51:41.682Z,30.07
2024-03-02T09:54:18.318Z,31.57
2024-03-02T09:56:52.521Z,30.10
2024-03-02T09:59:22.212Z,29.37
2024-03-02T10:02:20.056Z,30.07
2024-03-02T10:04:49.754Z,31.33
2024-03-02T10:07:21.212Z,27.83
2024-03-02T10:09:49.451Z,28.97
2024-03-02T10:12:17.494Z,29.43
2024-03-02T10:14:45.096Z,30.60
2024-03-02T10:17:15.155Z,29.53
2024-03-02T10:19:48.351Z,31.43
2024-03-02T10:22:15.530Z,31.47
2024-03-02T10:24:55.050Z,30.57
2024-03-02T10:27:31.686Z,29.43
2024-03-02T10:29:59.533Z,23.63
2024-03-02T10:32:27.370Z,19.30
2024-03-02T10:34:58.953Z,19.43
2024-03-02T10:37:28.975Z,18.60
2024-03-02T10:39:56.080Z,18.63
2024-03-02T10:42:24.295Z,19.07
2024-03-02T10:44:53.634Z,18.50
2024-03-02T10:47:21.816Z,18.17
2024-03-02T10:49:51.000Z,19.23
2024-03-02T10:52:18.518Z,19.67
2024-03-02T10:54:50.172Z,18.90
2024-03-02T10:57:18.578Z,18.53
2024-03-02T10:59:54.113Z,18.97
2024-03-02T11:02:25.527Z,20.70
2024-03-02T11:04:56.551Z,21.37
2024-03-02T11:07:26.392Z,22.70
2024-03-02T11:10:00.768Z,20.63
2024-03-02T11:12:39.114Z,22.33
2024-03-02T11:15:11.199Z,24.83
2024-03-02T11:17:39.855Z,26.00
2024-03-02T11:20:10.573Z,25.23
2024-03-02T11:22:38.338Z,25.23
2024-03-02T11:25:08.625Z,26.57
2024-03-02T11:27:50.441Z,28.10
2024-03-02T11:30:33.823Z,27.50
2024-03-02T11:33:13.682Z,29.63
2024-03-02T11:35:51.107Z,29.63
2024-03-02T11:38:21.648Z,28.50
2024-03-02T11:40:49.808Z,30.63
2024-03-02T11:43:19.128Z,29.03
2024-03-02T11:45:51.718Z,31.17
2024-03-02T11:48:21.270Z,30.97
2024-03-02T11:50:50.340Z,31.60
2024-03-02T11:53:21.622Z,31.47
2024-03-02T11:55:49.895Z,31.57
2024-03-02T11:58:28.683Z,32.60
2024-03-02T12:01:00.183Z,32.10
2024-03-02T12:03:30.259Z,33.00
2024-03-02T12:05:59.986Z,33.93
2024-03-02T12:08:28.130Z,31.93
2024-03-02T12:11:00.282Z,31.73
2024-03-02T12:13:29.178Z,31.47
2024-03-02T12:15:57.895Z,32.83
2024-03-02T12:18:25.128Z,31.57
2024-03-02T12:20:54.824Z,31.43
2024-03-02T12:23:27.445Z,34.53
2024-03-02T12:25:55.217Z,31.20
2024-03-02T12:28:22.258Z,33.43
2024-03-02T12:30:50.274Z,35.47
2024-03-02T12:33:17.805Z,34.60
2024-03-02T12:35:44.584Z,34.93
2024-03-02T12:38:17.102Z,34.53
2024-03-02T12:40:47.228Z,38.53
2024-03-02T12:43:17.986Z,36.53
2024-03-02T12:45:45.393Z,36.40
2024-03-02T12:48:15.142Z,34.70
2024-03-02T12:50:43.124Z,35.00
2024-03-02T12:53:15.535Z,36.63
2024-03-02T12:55:43.626Z,36.87
2024-03-02T12:58:11.331Z,37.87
2024-03-02T13:00:40.160Z,38.17
2024-03-02T13:03:08.719Z,37.77
2024-03-02T13:05:37.379Z,39.17
2024-03-02T13:08:10.177Z,38.63
2024-03-02T13:10:41.634Z,39.37
2024-03-02T13:13:09.320Z,41.90
2024-03-02T13:15:40.309Z,39.87
2024-03-02T13:18:15.174Z,41.80
2024-03-02T13:20:42.269Z,39.37
2024-03-02T13:23:11.903Z,40.20
2024-03-02T13:25:42.280Z,39.17
2024-03-02T13:28:12.390Z,38.67
2024-03-02T13:30:43.131Z,38.67
2024-03-02T13:33:14.842Z,39.87
2024-03-02T13:35:42.891Z,36.07
2024-03-02T13:38:13.443Z,36.10
2024-03-02T13:40:45.260Z,41.77
2024-03-02T13:43:13.519Z,36.87
2024-03-02T13:45:47.950Z,38.77
2024-03-02T13:48:16.395Z,38.07
2024-03-02T13:50:44.436Z,39.73
2024-03-02T13:53:12.977Z,37.50
2024-03-02T13:55:40.139Z,39.37
2024-03-02T13:58:09.091Z,36.50
2024-03-02T14:00:40.393Z,40.63
2024-03-02T14:03:08.514Z,40.43
2024-03-02T14:05:36.292Z,39.80
2024-03-02T14:08:03.979Z,42.67
2024-03-02T14:10:34.234Z,44.30
2024-03-02T14:13:02.345Z,43.93
2024-03-02T14:15:34.967Z,43.00
2024-03-02T14:18:04.065Z,45.27
2024-03-02T14:20:31.787Z,48.07
2024-03-02T14:23:01.246Z,44.93
2024-03-02T14:25:33.213Z,47.20
2024-03-02T14:28:23.127Z,45.87
2024-03-02T14:30:48.245Z,47.70
2024-03-02T14:33:24.758Z,44.23
2024-03-02T14:35:53.543Z,48.33
2024-03-02T14:38:24.806Z,48.03
2024-03-02T14:40:56.006Z,47.03
2024-03-02T14:43:23.691Z,48.63
2024-03-02T14:45:54.729Z,50.17
2024-03-02T14:48:26.049Z,46.07
2024-03-02T14:50:54.282Z,46.10
2024-03-02T14:53:21.134Z,46.93
2024-03-02T14:55:48.245Z,47.00
2024-03-02T14:58:18.277Z,44.50
2024-03-02T15:00:50.790Z,45.63
2024-03-02T15:03:18.450Z,44.47
2024-03-02T15:05:47.015Z,41.13
2024-03-02T15:08:25.300Z,40.30
2024-03-02T15:10:52.805Z,43.33
2024-03-02T15:13:19.613Z,40.53
2024-03-02T15:15:47.863Z,38.93
2024-03-02T15:18:16.440Z,43.40
2024-03-02T15:20:45.879Z,40.60
2024-03-02T15:23:17.131Z,40.23
2024-03-02T15:25:44.671Z,39.23
2024-03-02T15:28:17.999Z,39.43
2024-03-02T15:30:46.138Z,37.60
2024-03-02T15:33:13.700Z,38.23
2024-03-02T15:35:41.879Z,37.23
2024-03-02T15:38:22.072Z,37.47
2024-03-02T15:40:59.310Z,39.27
2024-03-02T15:43:26.563Z,40.17
2024-03-02T15:45:55.291Z,40.00
2024-03-02T15:48:22.815Z,36.93
2024-03-02T15:50:53.470Z,38.20
2024-03-02T15:53:25.871Z,39.87
2024-03-02T15:55:53.220Z,37.40
2024-03-02T15:58:21.043Z,40.07
2024-03-02T16:00:48.553Z,41.50
2024-03-02T16:03:21.413Z,40.97
2024-03-02T16:05:49.125Z,38.27
2024-03-02T16:08:16.644Z,38.83
2024-03-02T16:10:44.507Z,39.10
2024-03-02T16:13:12.735Z,40.13
2024-03-02T16:15:40.978Z,40.80
2024-03-02T16:18:11.640Z,41.63
2024-03-02T16:20:40.151Z,41.33
2024-03-02T16:23:08.128Z,44.40
2024-03-02T16:25:38.371Z,41.40
2024-03-02T16:28:07.624Z,41.57
2024-03-02T16:30:38.527Z,41.43
2024-03-02T16:33:06.552Z,42.57
2024-03-02T16:35:34.127Z,44.37
2024-03-02T16:38:02.679Z,42.00
2024-03-02T16:40:33.356Z,41.27
2024-03-02T16:43:01.718Z,43.73
2024-03-02T16:45:31.559Z,42.70
2024-03-02T16:47:59.541Z,42.50
2024-03-02T16:50:26.557Z,43.77
2024-03-02T16:52:57.032Z,44.10
2024-03-02T16:55:24.785Z,44.50
2024-03-02T16:57:54.151Z,44.13
2024-03-02T17:00:23.151Z,42.40
2024-03-02T17:02:54.466Z,46.30
2024-03-02T17:05:23.600Z,46.77
2024-03-02T17:07:50.795Z,43.87
2024-03-02T17:10:17.974Z,43.10
2024-03-02T17:12:45.356Z,43.83
2024-03-02T17:15:14.179Z,45.20
2024-03-02T17:17:41.392Z,43.60
2024-03-02T17:20:10.487Z,42.97
2024-03-02T17:22:37.694Z,44.40
2024-03-02T17:25:09.426Z,44.40
2024-03-02T17:27:37.448Z,43.73
2024-03-02T17:30:04.679Z,46.50
2024-03-02T17:32:33.761Z,45.73
2024-03-02T17:35:08.720Z,44.13
2024-03-02T17:37:37.681Z,44.63
2024-03-02T17:40:06.480Z,43.03
2024-03-02T17:42:33.833Z,44.43
2024-03-02T17:45:01.814Z,44.43
2024-03-02T17:47:29.293Z,45.87
2024-03-02T17:49:57.306Z,46.07
2024-03-02T17:52:27.473Z,47.57
2024-03-02T17:54:57.037Z,45.77
2024-03-02T17:57:26.496Z,48.43
2024-03-02T17:59:56.191Z,47.50
2024-03-02T18:02:48.962Z,49.13
2024-03-02T18:05:17.330Z,48.80
2024-03-02T18:07:44.269Z,49.87
2024-03-02T18:10:12.881Z,49.43
2024-03-02T18:12:40.196Z,51.17
2024-03-02T18:15:25.526Z,49.90
2024-03-02T18:17:53.907Z,49.43
2024-03-02T18:20:23.353Z,48.90
2024-03-02T18:22:51.190Z,51.10
2024-03-02T18:25:24.304Z,50.53
2024-03-02T18:27:51.960Z,50.93
2024-03-02T18:30:19.790Z,52.73
2024-03-02T18:32:47.397Z,55.57
2024-03-02T18:35:14.492Z,53.13
2024-03-02T18:37:46.600Z,50.03
2024-03-02T18:40:16.092Z,53.50
2024-03-02T18:42:43.353Z,49.50
2024-03-02T18:45:11.120Z,52.33
2024-03-02T18:47:40.546Z,52.17
2024-03-02T18:50:11.282Z,49.43
2024-03-02T18:52:38.581Z,51.00
2024-03-02T18:55:08.790Z,48.00
2024-03-02T18:57:38.398Z,46.20
2024-03-02T19:00:13.881Z,48.20
2024-03-02T19:02:45.517Z,49.13
2024-03-02T19:05:15.063Z,51.90
2024-03-02T19:07:45.228Z,46.23
2024-03-02T19:10:12.655Z,48.73
2024-03-02T19:12:43.142Z,48.43
2024-03-02T19:15:23.935Z,47.23
2024-03-02T19:17:51.352Z,45.90
2024-03-02T19:20:20.772Z,50.27
2024-03-02T19:22:51.608Z,45.37
2024-03-02T19:25:22.140Z,46.60
2024-03-02T19:27:51.455Z,46.93
2024-03-02T19:30:18.370Z,45.00
2024-03-02T19:32:46.404Z,47.83
2024-03-02T19:35:15.301Z,45.90
2024-03-02T19:37:42.646Z,47.30
2024-03-02T19:40:11.894Z,48.10
2024-03-02T19:42:40.568Z,47.50
2024-03-02T19:45:10.842Z,47.73
2024-03-02T19:47:39.931Z,47.60
2024-03-02T19:50:09.894Z,45.53
2024-03-02T19:52:40.843Z,44.77
2024-03-02T19:55:08.247Z,43.97
2024-03-02T19:57:40.132Z,46.17
2024-03-02T20:00:08.351Z,44.27
2024-03-02T20:02:35.414Z,45.17
2024-03-02T20:05:06.174Z,46.53
2024-03-02T20:07:34.522Z,47.20
2024-03-02T20:10:01.569Z,46.43
2024-03-02T20:12:29.722Z,45.67
2024-03-02T20:14:57.152Z,46.40
2024-03-02T20:17:24.508Z,46.27
2024-03-02T20:19:52.089Z,47.00
2024-03-02T20:22:19.272Z,46.17
2024-03-02T20:24:46.766Z,47.53
2024-03-02T20:27:23.620Z,45.93
2024-03-02T20:29:51.039Z,50.17
2024-03-02T20:32:20.724Z,46.90
2024-03-02T20:34:47.854Z,49.10
2024-03-02T20:37:15.574Z,49.73
2024-03-02T20:39:43.559Z,51.17
2024-03-02T20:42:22.626Z,46.87
2024-03-02T20:44:57.172Z,50.30
2024-03-02T20:47:25.193Z,50.00
2024-03-02T20:49:52.720Z,49.90
2024-03-02T20:52:21.100Z,52.37
2024-03-02T20:54:48.592Z,51.27
2024-03-02T20:57:16.109Z,50.47
2024-03-02T20:59:43.160Z,53.57
2024-03-02T21:02:10.341Z,52.60
2024-03-02T21:04:39.724Z,52.13
2024-03-02T21:07:07.280Z,49.57
2024-03-02T21:09:34.136Z,49.77
2024-03-02T21:12:01.752Z,50.63
2024-03-02T21:14:29.464Z,47.53
2024-03-02T21:16:57.298Z,48.53
2024-03-02T21:19:25.669Z,47.03
2024-03-02T21:21:52.856Z,48.23
2024-03-02T21:24:23.298Z,46.27
2024-03-02T21:26:51.511Z,48.60
2024-03-02T21:29:23.286Z,47.93
2024-03-02T21:31:52.250Z,47.63
2024-03-02T21:34:19.549Z,46.80
2024-03-02T21:36:49.069Z,49.37
2024-03-02T21:39:15.890Z,44.57
2024-03-02T21:41:47.521Z,43.87
2024-03-02T21:44:17.885Z,46.33
2024-03-02T21:46:50.035Z,48.90
2024-03-02T21:49:18.377Z,44.93
2024-03-02T21:51:45.699Z,43.23
2024-03-02T21:54:12.827Z,43.70
2024-03-02T21:56:40.245Z,45.03
2024-03-02T21:59:07.654Z,47.47
2024-03-02T22:01:35.100Z,46.93
2024-03-02T22:04:09.872Z,43.17
2024-03-02T22:06:38.550Z,46.97
2024-03-02T22:09:06.952Z,44.13
2024-03-02T22:11:34.904Z,43.60
2024-03-02T22:14:02.128Z,42.40
2024-03-02T22:16:29.633Z,45.53
2024-03-02T22:18:57.068Z,47.00
2024-03-02T22:21:24.114Z,49.00
2024-03-02T22:23:51.505Z,48.80
2024-03-02T22:26:20.282Z,49.03
2024-03-02T22:28:49.684Z,49.57
2024-03-02T22:31:16.860Z,50.40
2024-03-02T22:33:44.657Z,51.13
2024-03-02T22:36:13.055Z,50.73
2024-03-02T22:38:41.607Z,52.00
2024-03-02T22:41:08.556Z,48.40
2024-03-02T22:43:36.964Z,50.57
2024-03-02T22:46:03.809Z,47.47
2024-03-02T22:48:32.554Z,47.97
2024-03-02T22:51:00.757Z,47.50
2024-03-02T22:53:27.593Z,49.87
2024-03-02T22:55:54.805Z,49.67
2024-03-02T22:58:21.969Z,48.13
2024-03-02T23:00:50.245Z,45.73
2024-03-02T23:03:19.967Z,48.90
2024-03-02T23:05:47.220Z,49.50
2024-03-02T23:08:15.898Z,46.30
2024-03-02T23:10:43.756Z,49.30
2024-03-02T23:13:10.942Z,47.77
2024-03-02T23:15:38.019Z,48.37
2024-03-02T23:18:05.491Z,52.57
2024-03-02T23:20:33.012Z,49.33
2024-03-02T23:23:10.127Z,50.00
2024-03-02T23:25:38.139Z,48.57
2024-03-02T23:28:05.739Z,51.13
2024-03-02T23:30:35.103Z,46.87
2024-03-02T23:33:04.514Z,48.37
2024-03-02T23:35:32.849Z,49.77
2024-03-02T23:38:00.537Z,47.40
2024-03-02T23:40:40.151Z,48.37
2024-03-02T23:43:12.566Z,48.23
2024-03-02T23:45:41.036Z,50.23
2024-03-02T23:48:12.329Z,50.17
2024-03-02T23:50:42.697Z,50.13
2024-03-02T23:53:13.172Z,48.13
2024-03-02T23:55:47.470Z,48.83
2024-03-02T23:58:22.139Z,48.83
